KMFE/MFE METAR and TAF weather

Enter ICAO airport designator
Station Type Date Time Source
KMFE METAR 2022/01/18 06:53 UTC NOAA

KMFE 180653Z AUTO 13007KT 10SM CLR 09/07 A3008 RMK AO2 SLP184 T00940067


Station Type Date Time Source
KMFE Decoded METAR 2022/01/18 06:53 UTC NOAA

MCALLEN MILLER INTERNATIONAL AIRPORT , TX, United States (KMFE) 26-11N 98-15W 38M
Jan 18, 2022 - 01:53 AM EST / 2022.01.18 0653 UTC
Wind: from the SE (130 degrees) at 8 MPH (7 KT):0
Visibility: 10 mile(s):0
Sky conditions: clear
Temperature: 48.9 F (9.4 C)
Dew Point: 44.1 F (6.7 C)
Relative Humidity: 83%
Pressure (altimeter): 30.08 in. Hg (1018 hPa)
ob: KMFE 180653Z AUTO 13007KT 10SM CLR 09/07 A3008 RMK AO2 SLP184 T00940067
cycle: 7

Station Type Date Time Source
KMFE TAF 2022/01/18 06:22 UTC NOAA

TAF KMFE 180520Z 1806/1906 14005KT P6SM SKC
FM181500 16010G15KT P6SM FEW030
FM181700 15017G25KT P6SM SCT050
FM190200 15010G15KT P6SM SKC

Example: see airport list